This is the latest recevied weather packets stored in our database for station/object W9PEM-13. If no packets are shown the sender has not sent any weather packets the latest 1 day(s).
| Time | Temp. | Humidity | Pressure | Rain* | Wind** | Luminosity | Snow |
|---|---|---|---|---|---|---|---|
| 1777997612 | 11.11° C | 40% | 977.4 hPa | 0 mm | 4.02 m/s, 282° | 843 W/m² | - |
| 1777997064 | 11.11° C | 41% | 977.6 hPa | 0 mm | 5.81 m/s, 273° | 829 W/m² | - |
| 1777997013 | 11.11° C | 41% | 977.6 hPa | 0 mm | 5.81 m/s, 273° | 829 W/m² | - |
| 1777996490 | 11.11° C | 40% | 977.3 hPa | 0 mm | 3.58 m/s, 302° | 753 W/m² | - |
| 1777996413 | 11.11° C | 40% | 977.3 hPa | 0 mm | 3.58 m/s, 302° | 753 W/m² | - |
| 1777995840 | 11.11° C | 44% | 977.3 hPa | 0 mm | 3.13 m/s, 265° | 796 W/m² | - |
| 1777995248 | 11.11° C | 43% | 977.3 hPa | 0 mm | 3.58 m/s, 162° | 725 W/m² | - |
| 1777995212 | 11.11° C | 43% | 977.3 hPa | 0 mm | 3.58 m/s, 162° | 725 W/m² | - |
| 1777994652 | 10.56° C | 44% | 977.5 hPa | 0 mm | 4.02 m/s, 313° | 751 W/m² | - |
| 1777994612 | 10.56° C | 44% | 977.5 hPa | 0 mm | 4.02 m/s, 313° | 751 W/m² | - |
| 1777994052 | 10.56° C | 45% | 977.3 hPa | 0 mm | 4.92 m/s, 254° | 674 W/m² | - |
| 1777993453 | 10.56° C | 46% | 977.3 hPa | 0 mm | 3.58 m/s, 256° | 320 W/m² | - |
| 1777993413 | 10.56° C | 46% | 977.3 hPa | 0 mm | 3.58 m/s, 256° | 320 W/m² | - |
| 1777992812 | 10.56° C | 44% | 977.5 hPa | 0 mm | 4.47 m/s, 308° | 535 W/m² | - |
| 1777992211 | 10° C | 46% | 977.6 hPa | 0 mm | 5.81 m/s, 256° | 693 W/m² | - |
| 1777991611 | 10° C | 47% | 977.8 hPa | 0 mm | 3.58 m/s, 268° | 678 W/m² | - |
| 1777991105 | 9.44° C | 47% | 977.8 hPa | 0 mm | 1.34 m/s, 287° | 177 W/m² | - |
| 1777990452 | 10° C | 46% | 977.8 hPa | 0 mm | 4.47 m/s, 278° | 581 W/m² | - |
| 1777990412 | 10° C | 46% | 977.8 hPa | 0 mm | 4.47 m/s, 278° | 581 W/m² | - |
| 1777989850 | 10° C | 48% | 977.7 hPa | 0 mm | 3.58 m/s, 262° | 524 W/m² | - |
| 1777989812 | 10° C | 48% | 977.7 hPa | 0 mm | 3.58 m/s, 262° | 524 W/m² | - |
| 1777989552 | 10° C | 48% | 977.7 hPa | 0 mm | 4.02 m/s, 264° | 456 W/m² | - |
| 1777989212 | 10° C | 48% | 977.7 hPa | 0 mm | 4.02 m/s, 264° | 456 W/m² | - |
| 1777988611 | 10° C | 46% | 977.6 hPa | 0 mm | 2.68 m/s, 285° | 511 W/m² | - |
| 1777988011 | 9.44° C | 49% | 977.7 hPa | 0 mm | 2.24 m/s, 276° | 471 W/m² | - |
* Rain latest hour (hover to see other rain measurements)
** Current wind speed in m/s (hover to see current wind gust speed)